createdAt,value
2022-09-01T00:00:03.022Z,1.67
2022-09-01T00:02:33.937Z,1.27
2022-09-01T00:05:02.251Z,1.13
2022-09-01T00:07:30.721Z,1.40
2022-09-01T00:09:59.747Z,1.67
2022-09-01T00:12:28.218Z,1.37
2022-09-01T00:14:55.589Z,1.50
2022-09-01T00:17:22.967Z,1.17
2022-09-01T00:19:50.365Z,1.43
2022-09-01T00:22:18.073Z,1.63
2022-09-01T00:24:45.621Z,1.50
2022-09-01T00:27:13.036Z,1.70
2022-09-01T00:29:43.448Z,1.80
2022-09-01T00:32:12.591Z,1.60
2022-09-01T00:34:40.761Z,1.70
2022-09-01T00:37:08.310Z,1.77
2022-09-01T00:39:35.797Z,1.57
2022-09-01T00:42:03.715Z,1.73
2022-09-01T00:44:31.905Z,1.93
2022-09-01T00:47:00.189Z,1.83
2022-09-01T00:49:45.004Z,1.90
2022-09-01T00:52:21.283Z,1.87
2022-09-01T00:54:53.804Z,1.40
2022-09-01T00:57:21.781Z,1.80
2022-09-01T00:59:57.709Z,1.70
2022-09-01T01:02:26.288Z,1.57
2022-09-01T01:04:56.623Z,1.67
2022-09-01T01:07:24.539Z,1.53
2022-09-01T01:09:52.033Z,1.80
2022-09-01T01:12:20.105Z,1.90
2022-09-01T01:14:52.215Z,2.33
2022-09-01T01:17:22.467Z,1.70
2022-09-01T01:20:16.404Z,2.00
2022-09-01T01:23:10.009Z,1.80
2022-09-01T01:25:59.321Z,2.33
2022-09-01T01:28:35.622Z,2.40
2022-09-01T01:31:11.888Z,1.87
2022-09-01T01:33:44.450Z,2.80
2022-09-01T01:36:19.329Z,2.30
2022-09-01T01:38:49.563Z,2.40
2022-09-01T01:41:21.962Z,2.70
2022-09-01T01:43:51.027Z,2.60
2022-09-01T01:46:20.740Z,2.40
2022-09-01T01:48:52.329Z,1.90
2022-09-01T01:51:24.998Z,2.10
2022-09-01T01:53:52.873Z,1.80
2022-09-01T01:56:25.715Z,2.03
2022-09-01T01:58:55.978Z,1.90
2022-09-01T02:01:30.014Z,1.80
2022-09-01T02:04:00.297Z,2.23
2022-09-01T02:06:29.358Z,1.90
2022-09-01T02:09:03.074Z,2.00
2022-09-01T02:11:33.640Z,2.17
2022-09-01T02:14:01.308Z,2.03
2022-09-01T02:16:32.722Z,2.10
2022-09-01T02:19:03.384Z,2.17
2022-09-01T02:21:30.793Z,1.70
2022-09-01T02:24:02.422Z,2.00
2022-09-01T02:26:43.286Z,2.07
2022-09-01T02:29:18.997Z,2.10
2022-09-01T02:31:49.445Z,2.13
2022-09-01T02:34:18.761Z,2.00
2022-09-01T02:36:49.452Z,2.13
2022-09-01T02:39:28.126Z,2.13
2022-09-01T02:41:56.304Z,2.13
2022-09-01T02:44:27.842Z,2.30
2022-09-01T02:46:55.967Z,3.00
2022-09-01T02:49:29.697Z,2.47
2022-09-01T02:52:01.504Z,2.07
2022-09-01T02:54:32.263Z,2.10
2022-09-01T02:57:00.983Z,1.90
2022-09-01T02:59:30.353Z,2.30
2022-09-01T03:02:01.323Z,2.30
2022-09-01T03:04:35.339Z,3.13
2022-09-01T03:07:06.055Z,3.27
2022-09-01T03:09:35.109Z,4.47
2022-09-01T03:12:03.851Z,3.37
2022-09-01T03:14:31.984Z,3.70
2022-09-01T03:17:00.642Z,4.10
2022-09-01T03:19:32.368Z,2.77
2022-09-01T03:22:00.131Z,2.80
2022-09-01T03:24:30.194Z,3.20
2022-09-01T03:26:58.391Z,2.70
2022-09-01T03:29:26.367Z,2.67
2022-09-01T03:31:55.254Z,2.77
2022-09-01T03:34:23.783Z,2.67
2022-09-01T03:36:54.894Z,2.40
2022-09-01T03:39:27.931Z,2.17
2022-09-01T03:41:58.087Z,2.20
2022-09-01T03:44:25.820Z,2.30
2022-09-01T03:46:53.682Z,2.90
2022-09-01T03:49:27.725Z,2.47
2022-09-01T03:51:57.430Z,2.20
2022-09-01T03:54:30.202Z,2.77
2022-09-01T03:56:59.882Z,2.73
2022-09-01T03:59:29.872Z,2.80
2022-09-01T04:01:59.912Z,2.80
2022-09-01T04:04:27.731Z,2.90
2022-09-01T04:06:55.377Z,2.70
2022-09-01T04:09:22.844Z,2.57
2022-09-01T04:11:51.629Z,3.10
2022-09-01T04:14:20.515Z,3.30
2022-09-01T04:17:08.398Z,4.37
2022-09-01T04:19:39.350Z,4.03
2022-09-01T04:22:08.052Z,3.87
2022-09-01T04:24:45.654Z,3.47
2022-09-01T04:27:17.981Z,4.50
2022-09-01T04:29:46.970Z,3.50
2022-09-01T04:32:15.783Z,4.13
2022-09-01T04:34:46.891Z,4.70
2022-09-01T04:37:20.305Z,3.77
2022-09-01T04:39:56.202Z,3.90
2022-09-01T04:42:28.960Z,3.40
2022-09-01T04:44:57.685Z,3.00
2022-09-01T04:47:36.158Z,2.50
2022-09-01T04:50:13.798Z,2.50
2022-09-01T04:53:12.011Z,2.90
2022-09-01T04:55:44.315Z,2.73
2022-09-01T04:58:17.813Z,2.67
2022-09-01T05:00:48.460Z,2.80
2022-09-01T05:03:24.021Z,2.57
2022-09-01T05:06:03.877Z,2.10
2022-09-01T05:08:35.232Z,2.50
2022-09-01T05:11:07.925Z,2.90
2022-09-01T05:13:49.155Z,2.50
2022-09-01T05:16:24.817Z,2.63
2022-09-01T05:18:57.022Z,2.40
2022-09-01T05:21:32.813Z,2.20
2022-09-01T05:24:01.501Z,2.00
2022-09-01T05:26:33.932Z,2.40
2022-09-01T05:29:04.653Z,2.13
2022-09-01T05:31:37.727Z,1.80
2022-09-01T05:34:09.583Z,2.13
2022-09-01T05:36:41.914Z,2.90
2022-09-01T05:39:13.602Z,2.67
2022-09-01T05:41:41.241Z,2.80
2022-09-01T05:44:11.166Z,2.87
2022-09-01T05:46:39.905Z,3.00
2022-09-01T05:49:13.526Z,3.40
2022-09-01T05:51:45.599Z,4.10
2022-09-01T05:54:16.364Z,4.07
2022-09-01T05:56:44.994Z,4.20
2022-09-01T05:59:25.823Z,4.47
2022-09-01T06:01:58.843Z,4.87
2022-09-01T06:04:26.907Z,4.93
2022-09-01T06:07:06.695Z,4.90
2022-09-01T06:09:39.837Z,4.53
2022-09-01T06:12:09.193Z,5.27
2022-09-01T06:14:36.663Z,5.40
2022-09-01T06:17:04.287Z,5.50
2022-09-01T06:19:37.158Z,5.00
2022-09-01T06:22:05.488Z,5.40
2022-09-01T06:24:33.460Z,6.17
2022-09-01T06:27:01.438Z,4.80
2022-09-01T06:29:31.220Z,5.27
2022-09-01T06:31:59.820Z,4.80
2022-09-01T06:34:28.099Z,4.70
2022-09-01T06:36:55.487Z,4.23
2022-09-01T06:39:23.957Z,4.20
2022-09-01T06:41:54.764Z,4.10
2022-09-01T06:44:27.207Z,4.20
2022-09-01T06:47:01.146Z,4.00
2022-09-01T06:49:34.751Z,3.80
2022-09-01T06:52:05.675Z,3.40
2022-09-01T06:54:34.268Z,3.10
2022-09-01T06:59:54.032Z,2.60
2022-09-01T07:02:26.725Z,2.30
2022-09-01T07:08:10.964Z,2.10
2022-09-01T07:16:51.810Z,1.60
2022-09-01T07:19:21.784Z,1.80
2022-09-01T07:22:35.318Z,1.50
2022-09-01T07:24:48.353Z,1.10
2022-09-01T07:27:50.522Z,1.33
2022-09-01T07:30:23.988Z,1.30
2022-09-01T07:32:53.869Z,1.37
2022-09-01T07:35:22.539Z,1.20
2022-09-01T07:43:52.946Z,1.47
2022-09-01T07:46:39.738Z,1.07
2022-09-01T07:52:03.779Z,0.90
2022-09-01T07:54:33.923Z,0.70
2022-09-01T07:57:01.818Z,0.70
2022-09-01T07:59:35.671Z,0.70
2022-09-01T08:02:14.293Z,0.90
2022-09-01T08:04:43.601Z,0.60
2022-09-01T08:07:15.503Z,0.70
2022-09-01T08:09:44.361Z,0.70
2022-09-01T08:12:13.655Z,0.70
2022-09-01T08:15:12.718Z,0.80
2022-09-01T08:17:56.767Z,0.50
2022-09-01T08:20:26.297Z,0.90
2022-09-01T08:23:03.404Z,0.60
2022-09-01T08:25:37.081Z,0.80
2022-09-01T08:28:06.067Z,0.60
2022-09-01T08:30:35.893Z,1.40
2022-09-01T08:33:11.177Z,0.57
2022-09-01T08:35:45.873Z,0.50
2022-09-01T08:38:13.622Z,0.70
2022-09-01T08:40:43.424Z,0.60
2022-09-01T08:43:29.481Z,0.67
2022-09-01T08:46:31.123Z,1.27
2022-09-01T08:53:09.009Z,0.73
2022-09-01T08:55:43.293Z,0.50
2022-09-01T08:58:16.638Z,0.60
2022-09-01T09:00:57.893Z,0.60
2022-09-01T09:04:04.052Z,0.70
2022-09-01T09:07:02.874Z,0.70
2022-09-01T09:09:41.328Z,1.40
2022-09-01T09:12:56.766Z,0.60
2022-09-01T09:16:09.399Z,0.60
2022-09-01T09:18:59.734Z,0.50
2022-09-01T09:21:35.491Z,0.80
2022-09-01T09:24:11.492Z,0.70
2022-09-01T09:26:42.951Z,0.40
2022-09-01T09:29:11.544Z,0.70
2022-09-01T09:31:45.958Z,0.70
2022-09-01T09:34:37.504Z,0.60
2022-09-01T09:37:20.029Z,0.63
2022-09-01T09:40:08.701Z,0.57
2022-09-01T09:42:41.716Z,0.80
2022-09-01T09:45:26.646Z,0.80
2022-09-01T09:47:56.394Z,0.80
2022-09-01T09:50:49.253Z,0.80
2022-09-01T09:53:34.640Z,0.70
2022-09-01T09:56:05.189Z,0.70
2022-09-01T09:58:39.468Z,0.50
2022-09-01T10:01:15.225Z,0.93
2022-09-01T10:03:48.993Z,0.80
2022-09-01T10:06:41.954Z,0.50
2022-09-01T10:09:17.763Z,0.70
2022-09-01T10:11:51.447Z,0.70
2022-09-01T10:14:52.726Z,0.80
2022-09-01T10:17:27.971Z,0.60
2022-09-01T10:20:05.143Z,0.70
2022-09-01T10:22:34.609Z,0.60
2022-09-01T10:25:03.343Z,0.57
2022-09-01T10:27:35.483Z,0.60
2022-09-01T10:30:20.077Z,0.70
2022-09-01T10:32:55.796Z,0.70
2022-09-01T10:35:39.819Z,0.90
2022-09-01T10:38:12.130Z,0.60
2022-09-01T10:40:48.986Z,0.90
2022-09-01T10:43:38.294Z,0.70
2022-09-01T10:46:39.067Z,0.60
2022-09-01T10:49:25.739Z,0.50
2022-09-01T10:51:57.071Z,0.70
2022-09-01T10:54:50.851Z,0.73
2022-09-01T10:57:34.489Z,0.70
2022-09-01T11:00:36.194Z,0.70
2022-09-01T11:06:14.397Z,0.60
2022-09-01T11:09:07.771Z,0.83
2022-09-01T11:11:43.385Z,1.03
2022-09-01T11:14:20.851Z,0.60
2022-09-01T11:17:25.564Z,0.80
2022-09-01T11:20:22.247Z,0.80
2022-09-01T11:23:11.625Z,0.50
2022-09-01T11:25:48.505Z,0.70
2022-09-01T11:28:38.052Z,0.50
2022-09-01T11:31:05.978Z,0.97
2022-09-01T11:34:11.353Z,0.50
2022-09-01T11:36:48.246Z,0.60
2022-09-01T11:39:46.345Z,0.80
2022-09-01T11:42:26.768Z,0.80
2022-09-01T11:45:22.129Z,0.87
2022-09-01T11:47:55.973Z,1.07
2022-09-01T11:50:28.207Z,1.30
2022-09-01T11:53:05.505Z,0.80
2022-09-01T11:55:41.660Z,0.80
2022-09-01T11:58:28.882Z,0.77
2022-09-01T12:01:11.391Z,0.80
2022-09-01T12:03:39.046Z,0.70
2022-09-01T12:06:10.832Z,1.23
2022-09-01T12:08:43.203Z,0.60
2022-09-01T12:11:18.438Z,0.73
2022-09-01T12:14:01.717Z,0.70
2022-09-01T12:16:35.652Z,0.50
2022-09-01T12:19:06.265Z,0.80
2022-09-01T12:21:38.857Z,0.80
2022-09-01T12:24:19.933Z,0.50
2022-09-01T12:26:50.943Z,1.00
2022-09-01T12:29:23.287Z,0.80
2022-09-01T12:31:53.080Z,0.70
2022-09-01T12:34:59.058Z,0.60
2022-09-01T12:37:27.680Z,0.87
2022-09-01T12:39:57.635Z,0.80
2022-09-01T12:42:32.437Z,0.80
2022-09-01T12:45:10.739Z,0.80
2022-09-01T12:47:48.019Z,0.80
2022-09-01T12:50:16.740Z,0.83
2022-09-01T12:52:52.636Z,0.70
2022-09-01T12:58:25.091Z,0.93
2022-09-01T13:01:05.275Z,1.27
2022-09-01T13:03:34.571Z,1.20
2022-09-01T13:06:03.667Z,0.70
2022-09-01T13:08:34.171Z,0.80
2022-09-01T13:11:08.110Z,1.53
2022-09-01T13:13:35.764Z,0.60
2022-09-01T13:16:10.535Z,0.83
2022-09-01T13:19:10.915Z,1.20
2022-09-01T13:24:11.036Z,1.50
2022-09-01T13:26:38.419Z,0.83
2022-09-01T13:29:06.028Z,0.93
2022-09-01T13:31:35.774Z,0.63
2022-09-01T13:34:21.732Z,0.93
2022-09-01T13:36:52.552Z,0.87
2022-09-01T13:39:21.415Z,0.80
2022-09-01T13:41:49.667Z,0.77
2022-09-01T13:44:18.716Z,1.20
2022-09-01T13:49:44.956Z,0.50
2022-09-01T13:52:22.747Z,0.70
2022-09-01T13:54:52.149Z,0.60
2022-09-01T13:57:20.117Z,0.60
2022-09-01T13:59:49.578Z,0.70
2022-09-01T14:02:17.053Z,0.60
2022-09-01T14:04:45.852Z,0.70
2022-09-01T14:07:16.083Z,0.57
2022-09-01T14:09:43.518Z,0.67
2022-09-01T14:12:10.979Z,0.97
2022-09-01T14:17:26.419Z,1.10
2022-09-01T14:19:55.323Z,0.70
2022-09-01T14:22:23.183Z,0.90
2022-09-01T14:24:50.531Z,0.67
2022-09-01T14:27:18.667Z,0.97
2022-09-01T14:29:50.637Z,0.60
2022-09-01T14:32:26.813Z,0.80
2022-09-01T14:34:55.990Z,0.57
2022-09-01T14:37:24.314Z,0.90
2022-09-01T14:39:54.370Z,0.80
2022-09-01T14:42:23.975Z,0.70
2022-09-01T14:45:18.847Z,0.83
2022-09-01T14:47:48.370Z,0.83
2022-09-01T14:50:22.749Z,0.50
2022-09-01T14:52:56.231Z,0.60
2022-09-01T14:55:25.561Z,0.40
2022-09-01T14:57:54.930Z,0.70
2022-09-01T15:00:27.758Z,0.57
2022-09-01T15:02:56.422Z,0.90
2022-09-01T15:05:24.897Z,0.40
2022-09-01T15:07:53.547Z,0.67
2022-09-01T15:10:25.688Z,0.60
2022-09-01T15:12:55.702Z,1.30
2022-09-01T15:15:23.526Z,0.60
2022-09-01T15:18:16.184Z,0.60
2022-09-01T15:20:46.670Z,0.97
2022-09-01T15:23:20.628Z,0.73
2022-09-01T15:25:52.018Z,0.70
2022-09-01T15:28:20.773Z,0.80
2022-09-01T15:30:48.310Z,0.90
2022-09-01T15:33:16.321Z,1.00
2022-09-01T15:35:48.414Z,1.07
2022-09-01T15:38:18.079Z,0.80
2022-09-01T15:40:57.085Z,0.90
2022-09-01T15:43:30.516Z,1.03
2022-09-01T15:45:58.694Z,0.87
2022-09-01T15:48:28.289Z,1.20
2022-09-01T15:51:23.539Z,1.60
2022-09-01T15:53:53.319Z,1.00
2022-09-01T15:56:20.967Z,1.00
2022-09-01T15:59:01.074Z,0.90
2022-09-01T16:01:31.946Z,0.77
2022-09-01T16:04:01.132Z,0.80
2022-09-01T16:06:29.102Z,0.80
2022-09-01T16:08:57.336Z,0.73
2022-09-01T16:11:25.917Z,0.70
2022-09-01T16:13:54.157Z,0.67
2022-09-01T16:16:56.692Z,0.60
2022-09-01T16:19:53.991Z,0.80
2022-09-01T16:22:23.451Z,0.60
2022-09-01T16:24:57.787Z,0.83
2022-09-01T16:27:34.057Z,0.70
2022-09-01T16:30:14.494Z,0.80
2022-09-01T16:32:46.142Z,0.50
2022-09-01T16:35:16.857Z,0.60
2022-09-01T16:38:12.547Z,0.80
2022-09-01T16:41:15.905Z,0.67
2022-09-01T16:44:16.083Z,0.70
2022-09-01T16:46:58.816Z,0.70
2022-09-01T16:49:37.322Z,1.57
2022-09-01T16:52:26.507Z,0.80
2022-09-01T16:55:29.545Z,0.80
2022-09-01T16:58:09.101Z,0.80
2022-09-01T17:01:03.309Z,1.10
2022-09-01T17:03:43.223Z,0.80
2022-09-01T17:06:31.790Z,0.83
2022-09-01T17:09:09.240Z,0.90
2022-09-01T17:11:49.122Z,0.70
2022-09-01T17:14:28.006Z,0.70
2022-09-01T17:17:12.351Z,0.90
2022-09-01T17:19:41.120Z,0.80
2022-09-01T17:22:12.603Z,1.00
2022-09-01T17:24:46.250Z,0.73
2022-09-01T17:27:18.468Z,0.70
2022-09-01T17:29:52.069Z,0.70
2022-09-01T17:32:34.654Z,0.80
2022-09-01T17:35:37.741Z,0.90
2022-09-01T17:38:54.105Z,0.70
2022-09-01T17:41:34.234Z,0.70
2022-09-01T17:44:35.651Z,0.83
2022-09-01T17:47:17.622Z,1.00
2022-09-01T17:50:15.179Z,0.87
2022-09-01T17:52:56.285Z,0.80
2022-09-01T17:55:43.406Z,1.00
2022-09-01T17:58:38.914Z,1.10
2022-09-01T18:01:26.489Z,1.10
2022-09-01T18:04:38.395Z,0.77
2022-09-01T18:07:23.459Z,1.10
2022-09-01T18:09:54.490Z,0.87
2022-09-01T18:12:29.215Z,1.03
2022-09-01T18:15:09.842Z,1.10
2022-09-01T18:18:10.423Z,1.23
2022-09-01T18:20:43.648Z,1.10
2022-09-01T18:23:13.755Z,1.50
2022-09-01T18:26:05.690Z,1.30
2022-09-01T18:28:33.165Z,1.80
2022-09-01T18:31:22.617Z,1.20
2022-09-01T18:34:02.306Z,1.30
2022-09-01T18:36:44.773Z,1.30
2022-09-01T18:39:28.478Z,0.90
2022-09-01T18:42:16.964Z,1.20
2022-09-01T18:45:07.414Z,0.97
2022-09-01T18:47:49.372Z,0.70
2022-09-01T18:51:04.217Z,1.13
2022-09-01T18:53:59.170Z,1.10
2022-09-01T18:56:47.058Z,1.00
2022-09-01T18:59:17.586Z,0.90
2022-09-01T19:01:59.674Z,1.30
2022-09-01T19:04:42.287Z,1.17
2022-09-01T19:07:36.697Z,0.80
2022-09-01T19:10:19.382Z,0.97
2022-09-01T19:13:12.067Z,1.50
2022-09-01T19:15:59.962Z,1.23
2022-09-01T19:18:57.307Z,0.90
2022-09-01T19:21:32.201Z,1.13
2022-09-01T19:24:10.207Z,0.90
2022-09-01T19:26:54.719Z,0.70
2022-09-01T19:29:35.163Z,1.37
2022-09-01T19:32:08.567Z,0.80
2022-09-01T19:34:41.381Z,1.00
2022-09-01T19:37:10.809Z,0.90
2022-09-01T19:39:43.768Z,0.80
2022-09-01T19:42:41.379Z,1.07
2022-09-01T19:45:27.987Z,0.90
2022-09-01T19:48:08.349Z,0.90
2022-09-01T19:50:47.412Z,0.90
2022-09-01T19:53:45.173Z,0.90
2022-09-01T19:56:57.383Z,1.10
2022-09-01T19:59:43.715Z,1.40
2022-09-01T20:02:21.186Z,1.17
2022-09-01T20:05:00.506Z,1.17
2022-09-01T20:07:44.563Z,1.03
2022-09-01T20:10:37.025Z,1.07
2022-09-01T20:13:30.079Z,1.43
2022-09-01T20:16:24.118Z,1.07
2022-09-01T20:19:03.931Z,0.93
2022-09-01T20:21:32.918Z,0.90
2022-09-01T20:24:21.842Z,0.90
2022-09-01T20:27:17.759Z,1.30
2022-09-01T20:29:45.037Z,0.90
2022-09-01T20:32:14.511Z,0.90
2022-09-01T20:34:48.003Z,1.23
2022-09-01T20:37:23.969Z,1.10
2022-09-01T20:40:05.050Z,0.90
2022-09-01T20:42:32.498Z,1.10
2022-09-01T20:45:14.905Z,0.90
2022-09-01T20:47:50.406Z,0.70
2022-09-01T20:50:19.603Z,1.10
2022-09-01T20:53:03.729Z,0.90
2022-09-01T20:55:54.511Z,1.10
2022-09-01T20:58:33.492Z,1.20
2022-09-01T21:01:17.860Z,0.80
2022-09-01T21:04:09.579Z,0.90
2022-09-01T21:07:00.291Z,1.07
2022-09-01T21:09:54.032Z,1.17
2022-09-01T21:12:30.796Z,1.07
2022-09-01T21:15:13.332Z,1.20
2022-09-01T21:17:49.805Z,1.40
2022-09-01T21:20:49.954Z,1.20
2022-09-01T21:23:20.113Z,1.00
2022-09-01T21:25:48.598Z,0.87
2022-09-01T21:28:20.240Z,1.30
2022-09-01T21:30:54.837Z,1.10
2022-09-01T21:33:23.490Z,1.20
2022-09-01T21:35:52.967Z,0.90
2022-09-01T21:38:20.526Z,1.00
2022-09-01T21:40:50.829Z,1.10
2022-09-01T21:43:22.315Z,1.10
2022-09-01T21:45:50.177Z,1.23
2022-09-01T21:48:18.561Z,1.13
2022-09-01T21:50:47.563Z,1.10
2022-09-01T21:53:15.330Z,1.10
2022-09-01T21:55:43.347Z,1.80
2022-09-01T21:58:10.912Z,1.30
2022-09-01T22:00:39.668Z,2.00
2022-09-01T22:03:08.023Z,1.50
2022-09-01T22:05:41.141Z,1.80
2022-09-01T22:08:13.403Z,1.57
2022-09-01T22:10:52.041Z,1.50
2022-09-01T22:13:22.630Z,1.23
2022-09-01T22:15:53.609Z,1.90
2022-09-01T22:18:21.920Z,1.63
2022-09-01T22:20:50.114Z,1.67
2022-09-01T22:23:17.561Z,3.13
2022-09-01T22:25:46.616Z,1.90
2022-09-01T22:28:14.463Z,2.03
2022-09-01T22:30:47.556Z,2.80
2022-09-01T22:33:15.909Z,2.50
2022-09-01T22:35:50.422Z,2.93
2022-09-01T22:38:18.643Z,4.40
2022-09-01T22:40:56.321Z,2.43
2022-09-01T22:43:24.864Z,4.33
2022-09-01T22:45:52.972Z,4.00
2022-09-01T22:48:22.754Z,21.97
2022-09-01T22:50:51.750Z,10.23
2022-09-01T22:53:21.189Z,15.03
2022-09-01T22:55:52.009Z,23.93
2022-09-01T22:58:19.848Z,7.30
2022-09-01T23:00:53.387Z,3.30
2022-09-01T23:03:22.260Z,4.10
2022-09-01T23:05:50.398Z,3.30
2022-09-01T23:08:17.967Z,3.20
2022-09-01T23:10:45.556Z,6.50
2022-09-01T23:13:13.518Z,3.63
2022-09-01T23:15:43.435Z,1.80
2022-09-01T23:18:11.274Z,1.70
2022-09-01T23:20:38.708Z,1.73
2022-09-01T23:23:06.046Z,1.83
2022-09-01T23:25:33.400Z,1.73
2022-09-01T23:28:01.599Z,1.40
2022-09-01T23:30:29.463Z,1.90
2022-09-01T23:32:57.819Z,1.17
2022-09-01T23:35:26.895Z,1.50
2022-09-01T23:37:55.437Z,1.50
2022-09-01T23:40:23.116Z,1.50
2022-09-01T23:42:50.485Z,1.30
2022-09-01T23:45:18.012Z,1.20
2022-09-01T23:47:45.368Z,1.33
2022-09-01T23:50:12.866Z,1.30
2022-09-01T23:52:40.343Z,1.47
2022-09-01T23:55:08.295Z,1.63
2022-09-01T23:57:35.682Z,1.20
